This is the latest recevied weather packets stored in our database for station/object KE9ADS. If no packets are shown the sender has not sent any weather packets the latest 10 day(s).
| Time | Temp. | Humidity | Pressure | Rain* | Wind** | Luminosity | Snow |
|---|---|---|---|---|---|---|---|
| 1777635931 | 3.89° C | 79% | 1020 hPa | 0 mm | - | 25 W/m² | - |
| 1777635330 | 2.78° C | 85% | 1019.8 hPa | 0 mm | - | 12 W/m² | - |
| 1777634729 | 2.22° C | 86% | 1019.8 hPa | 0 mm | - | 9 W/m² | - |
| 1777634129 | 1.67° C | 86% | 1019.4 hPa | 0 mm | - | 9 W/m² | - |
| 1777633529 | 2.22° C | 86% | 1019.5 hPa | 0 mm | - | 4 W/m² | - |
| 1777632929 | 1.67° C | 85% | 1019.4 hPa | 0 mm | - | 2 W/m² | - |
| 1777632328 | 2.22° C | 85% | 1019.5 hPa | 0 mm | - | 0 W/m² | - |
| 1777631723 | 1.67° C | 85% | 1019.5 hPa | 0 mm | - | 0 W/m² | - |
| 1777631122 | 1.67° C | 85% | 1019.6 hPa | 0 mm | - | 0 W/m² | - |
| 1777630521 | 2.22° C | 85% | 1019.5 hPa | 0 mm | - | 0 W/m² | - |
| 1777629917 | 2.22° C | 84% | 1019.6 hPa | 0 mm | - | 0 W/m² | - |
| 1777629316 | 2.22° C | 83% | 1019.5 hPa | 0 mm | - | 0 W/m² | - |
| 1777628714 | 2.78° C | 81% | 1019.5 hPa | 0 mm | - | 0 W/m² | - |
| 1777628113 | 3.33° C | 80% | 1019.4 hPa | 0 mm | - | 0 W/m² | - |
| 1777627514 | 3.33° C | 79% | 1019.4 hPa | 0 mm | - | 0 W/m² | - |
| 1777626912 | 3.33° C | 79% | 1019.1 hPa | 0 mm | - | 0 W/m² | - |
| 1777626308 | 3.33° C | 79% | 1019.2 hPa | 0 mm | - | 0 W/m² | - |
| 1777625708 | 3.89° C | 78% | 1019.2 hPa | 0 mm | - | 0 W/m² | - |
| 1777625106 | 3.89° C | 77% | 1019.1 hPa | 0 mm | - | 0 W/m² | - |
| 1777624503 | 4.44° C | 75% | 1019.2 hPa | 0 mm | - | 0 W/m² | - |
| 1777623903 | 4.44° C | 74% | 1018.9 hPa | 0 mm | - | 0 W/m² | - |
| 1777623298 | 5° C | 73% | 1018.9 hPa | 0 mm | - | 0 W/m² | - |
| 1777622697 | 5° C | 70% | 1018.8 hPa | 0 mm | - | 0 W/m² | - |
| 1777622096 | 5.56° C | 69% | 1018.7 hPa | 0 mm | - | 0 W/m² | - |
| 1777621495 | 5.56° C | 68% | 1018.9 hPa | 0 mm | - | 0 W/m² | - |
* Rain latest hour (hover to see other rain measurements)
** Current wind speed in m/s (hover to see current wind gust speed)